sensor_id;sensor_type;location;lat;lon;timestamp;pressure;altitude;pressure_sealevel;temperature
64904;BMP280;51401;48.882;12.598;2023-10-13T00:01:53;64126.19;;;-137.53
64904;BMP280;51401;48.882;12.598;2023-10-13T00:04:19;64126.19;;;-137.53
64904;BMP280;51401;48.882;12.598;2023-10-13T00:06:48;64128.19;;;-137.53
64904;BMP280;51401;48.882;12.598;2023-10-13T00:09:13;64124.22;;;-137.53
64904;BMP280;51401;48.882;12.598;2023-10-13T00:11:42;64126.19;;;-137.53
64904;BMP280;51401;48.882;12.598;2023-10-13T00:14:14;64126.19;;;-137.53
64904;BMP280;51401;48.882;12.598;2023-10-13T00:16:42;64124.22;;;-137.53
64904;BMP280;51401;48.882;12.598;2023-10-13T00:19:08;64126.19;;;-137.53
64904;BMP280;51401;48.882;12.598;2023-10-13T00:21:35;64128.19;;;-137.53
64904;BMP280;51401;48.882;12.598;2023-10-13T00:24:00;64124.22;;;-137.53
64904;BMP280;51401;48.882;12.598;2023-10-13T00:26:27;64126.19;;;-137.53
64904;BMP280;51401;48.882;12.598;2023-10-13T00:28:54;64124.22;;;-137.53
64904;BMP280;51401;48.882;12.598;2023-10-13T00:31:54;64128.19;;;-137.53
64904;BMP280;51401;48.882;12.598;2023-10-13T00:34:20;64124.22;;;-137.53
64904;BMP280;51401;48.882;12.598;2023-10-13T00:36:54;64126.19;;;-137.53
64904;BMP280;51401;48.882;12.598;2023-10-13T00:39:42;64126.19;;;-137.53
64904;BMP280;51401;48.882;12.598;2023-10-13T00:42:12;64126.19;;;-137.53
64904;BMP280;51401;48.882;12.598;2023-10-13T00:44:45;64126.19;;;-137.53
64904;BMP280;51401;48.882;12.598;2023-10-13T00:47:14;64126.19;;;-137.53
64904;BMP280;51401;48.882;12.598;2023-10-13T00:49:44;64128.19;;;-137.53
64904;BMP280;51401;48.882;12.598;2023-10-13T00:52:12;64124.22;;;-137.53
64904;BMP280;51401;48.882;12.598;2023-10-13T00:54:37;64130.16;;;-137.53
64904;BMP280;51401;48.882;12.598;2023-10-13T00:57:03;64126.19;;;-137.53
64904;BMP280;51401;48.882;12.598;2023-10-13T00:59:51;64128.19;;;-137.53
64904;BMP280;51401;48.882;12.598;2023-10-13T01:02:18;64128.19;;;-137.53
64904;BMP280;51401;48.882;12.598;2023-10-13T01:04:58;64128.19;;;-137.53
64904;BMP280;51401;48.882;12.598;2023-10-13T01:07:23;64130.16;;;-137.53
64904;BMP280;51401;48.882;12.598;2023-10-13T01:09:49;64128.19;;;-137.53
64904;BMP280;51401;48.882;12.598;2023-10-13T01:12:14;64128.19;;;-137.53
64904;BMP280;51401;48.882;12.598;2023-10-13T01:14:40;64128.19;;;-137.53
64904;BMP280;51401;48.882;12.598;2023-10-13T01:17:05;64128.19;;;-137.53
64904;BMP280;51401;48.882;12.598;2023-10-13T01:19:35;64128.19;;;-137.53
64904;BMP280;51401;48.882;12.598;2023-10-13T01:22:03;64130.16;;;-137.53
64904;BMP280;51401;48.882;12.598;2023-10-13T01:24:31;64128.19;;;-137.53
64904;BMP280;51401;48.882;12.598;2023-10-13T01:26:59;64130.16;;;-137.53
64904;BMP280;51401;48.882;12.598;2023-10-13T01:29:32;64130.16;;;-137.53
64904;BMP280;51401;48.882;12.598;2023-10-13T01:31:58;64126.19;;;-137.53
64904;BMP280;51401;48.882;12.598;2023-10-13T01:34:23;64128.19;;;-137.53
64904;BMP280;51401;48.882;12.598;2023-10-13T01:36:52;64128.19;;;-137.53
64904;BMP280;51401;48.882;12.598;2023-10-13T01:39:19;64128.19;;;-137.53
64904;BMP280;51401;48.882;12.598;2023-10-13T01:41:44;64128.19;;;-137.53
64904;BMP280;51401;48.882;12.598;2023-10-13T01:44:10;64128.19;;;-137.53
64904;BMP280;51401;48.882;12.598;2023-10-13T01:46:39;64128.19;;;-137.53
64904;BMP280;51401;48.882;12.598;2023-10-13T01:49:07;64130.16;;;-137.53
64904;BMP280;51401;48.882;12.598;2023-10-13T01:51:33;64130.16;;;-137.53
64904;BMP280;51401;48.882;12.598;2023-10-13T01:53:58;64128.19;;;-137.53
64904;BMP280;51401;48.882;12.598;2023-10-13T01:56:26;64128.19;;;-137.53
64904;BMP280;51401;48.882;12.598;2023-10-13T01:58:55;64128.19;;;-137.53
64904;BMP280;51401;48.882;12.598;2023-10-13T02:01:20;64128.19;;;-137.53
64904;BMP280;51401;48.882;12.598;2023-10-13T02:03:52;64128.19;;;-137.53
64904;BMP280;51401;48.882;12.598;2023-10-13T02:06:26;64128.19;;;-137.53
64904;BMP280;51401;48.882;12.598;2023-10-13T02:08:57;64128.19;;;-137.53
64904;BMP280;51401;48.882;12.598;2023-10-13T02:11:23;64130.16;;;-137.53
64904;BMP280;51401;48.882;12.598;2023-10-13T02:13:48;64126.19;;;-137.53
64904;BMP280;51401;48.882;12.598;2023-10-13T02:16:16;64128.19;;;-137.53
64904;BMP280;51401;48.882;12.598;2023-10-13T02:18:43;64126.19;;;-137.53
64904;BMP280;51401;48.882;12.598;2023-10-13T02:21:09;64132.16;;;-137.53
64904;BMP280;51401;48.882;12.598;2023-10-13T02:23:40;64128.19;;;-137.53
64904;BMP280;51401;48.882;12.598;2023-10-13T02:26:10;64132.16;;;-137.53
64904;BMP280;51401;48.882;12.598;2023-10-13T02:28:40;64130.16;;;-137.53
64904;BMP280;51401;48.882;12.598;2023-10-13T02:31:05;64128.19;;;-137.53
64904;BMP280;51401;48.882;12.598;2023-10-13T02:33:31;64132.16;;;-137.53
64904;BMP280;51401;48.882;12.598;2023-10-13T02:35:57;64128.19;;;-137.53
64904;BMP280;51401;48.882;12.598;2023-10-13T02:38:22;64132.16;;;-137.53
64904;BMP280;51401;48.882;12.598;2023-10-13T02:41:03;64128.19;;;-137.53
64904;BMP280;51401;48.882;12.598;2023-10-13T02:43:32;64128.19;;;-137.53
64904;BMP280;51401;48.882;12.598;2023-10-13T02:45:58;64132.16;;;-137.53
64904;BMP280;51401;48.882;12.598;2023-10-13T02:48:25;64134.13;;;-137.53
64904;BMP280;51401;48.882;12.598;2023-10-13T02:50:54;64130.16;;;-137.53
64904;BMP280;51401;48.882;12.598;2023-10-13T02:53:20;64128.19;;;-137.53
64904;BMP280;51401;48.882;12.598;2023-10-13T02:55:52;64132.16;;;-137.53
64904;BMP280;51401;48.882;12.598;2023-10-13T02:58:17;64128.19;;;-137.53
64904;BMP280;51401;48.882;12.598;2023-10-13T03:00:43;64128.19;;;-137.53
64904;BMP280;51401;48.882;12.598;2023-10-13T03:03:09;64132.16;;;-137.53
64904;BMP280;51401;48.882;12.598;2023-10-13T03:05:35;64132.16;;;-137.53
64904;BMP280;51401;48.882;12.598;2023-10-13T03:08:01;64132.16;;;-137.53
64904;BMP280;51401;48.882;12.598;2023-10-13T03:10:29;64130.16;;;-137.53
64904;BMP280;51401;48.882;12.598;2023-10-13T03:12:54;64132.16;;;-137.53
64904;BMP280;51401;48.882;12.598;2023-10-13T03:15:20;64132.16;;;-137.53
64904;BMP280;51401;48.882;12.598;2023-10-13T03:17:55;64132.16;;;-137.53
64904;BMP280;51401;48.882;12.598;2023-10-13T03:20:23;64128.19;;;-137.53
64904;BMP280;51401;48.882;12.598;2023-10-13T03:22:58;64132.16;;;-137.53
64904;BMP280;51401;48.882;12.598;2023-10-13T03:25:24;64132.16;;;-137.53
64904;BMP280;51401;48.882;12.598;2023-10-13T03:27:50;64130.16;;;-137.53
64904;BMP280;51401;48.882;12.598;2023-10-13T03:30:15;64130.16;;;-137.53
64904;BMP280;51401;48.882;12.598;2023-10-13T03:32:41;64128.19;;;-137.53
64904;BMP280;51401;48.882;12.598;2023-10-13T03:35:13;64132.16;;;-137.53
64904;BMP280;51401;48.882;12.598;2023-10-13T03:37:42;64134.13;;;-137.53
64904;BMP280;51401;48.882;12.598;2023-10-13T03:40:08;64130.16;;;-137.53
64904;BMP280;51401;48.882;12.598;2023-10-13T03:42:49;64132.16;;;-137.53
64904;BMP280;51401;48.882;12.598;2023-10-13T03:45:37;64128.19;;;-137.53
64904;BMP280;51401;48.882;12.598;2023-10-13T03:48:07;64128.19;;;-137.53
64904;BMP280;51401;48.882;12.598;2023-10-13T03:50:55;64132.16;;;-137.53
64904;BMP280;51401;48.882;12.598;2023-10-13T03:53:36;64130.16;;;-137.53
64904;BMP280;51401;48.882;12.598;2023-10-13T03:56:02;64126.19;;;-137.53
64904;BMP280;51401;48.882;12.598;2023-10-13T03:58:36;64128.19;;;-137.53
64904;BMP280;51401;48.882;12.598;2023-10-13T04:01:03;64128.19;;;-137.53
64904;BMP280;51401;48.882;12.598;2023-10-13T04:03:30;64128.19;;;-137.53
64904;BMP280;51401;48.882;12.598;2023-10-13T04:06:00;64130.16;;;-137.53
64904;BMP280;51401;48.882;12.598;2023-10-13T04:08:27;64128.19;;;-137.53
64904;BMP280;51401;48.882;12.598;2023-10-13T04:10:52;64128.19;;;-137.53
64904;BMP280;51401;48.882;12.598;2023-10-13T04:13:19;64130.16;;;-137.53
64904;BMP280;51401;48.882;12.598;2023-10-13T04:16:03;64132.16;;;-137.53
64904;BMP280;51401;48.882;12.598;2023-10-13T04:18:47;64124.22;;;-137.53
64904;BMP280;51401;48.882;12.598;2023-10-13T04:21:32;64128.19;;;-137.53
64904;BMP280;51401;48.882;12.598;2023-10-13T04:24:12;64128.19;;;-137.53
64904;BMP280;51401;48.882;12.598;2023-10-13T04:26:50;64126.19;;;-137.53
64904;BMP280;51401;48.882;12.598;2023-10-13T04:29:34;64128.19;;;-137.53
64904;BMP280;51401;48.882;12.598;2023-10-13T04:32:11;64130.16;;;-137.53
64904;BMP280;51401;48.882;12.598;2023-10-13T04:34:39;64130.16;;;-137.53
64904;BMP280;51401;48.882;12.598;2023-10-13T04:37:10;64128.19;;;-137.53
64904;BMP280;51401;48.882;12.598;2023-10-13T04:39:54;64132.16;;;-137.53
64904;BMP280;51401;48.882;12.598;2023-10-13T04:42:24;64126.19;;;-137.53
64904;BMP280;51401;48.882;12.598;2023-10-13T04:45:05;64128.19;;;-137.53
64904;BMP280;51401;48.882;12.598;2023-10-13T04:47:41;64128.19;;;-137.53
64904;BMP280;51401;48.882;12.598;2023-10-13T04:50:13;64128.19;;;-137.53
64904;BMP280;51401;48.882;12.598;2023-10-13T04:52:47;64124.22;;;-137.53
64904;BMP280;51401;48.882;12.598;2023-10-13T04:55:26;64128.19;;;-137.53
64904;BMP280;51401;48.882;12.598;2023-10-13T04:58:08;64124.22;;;-137.53
64904;BMP280;51401;48.882;12.598;2023-10-13T05:00:39;64126.19;;;-137.53
64904;BMP280;51401;48.882;12.598;2023-10-13T05:03:20;64128.19;;;-137.53
64904;BMP280;51401;48.882;12.598;2023-10-13T05:06:15;64128.19;;;-137.53
64904;BMP280;51401;48.882;12.598;2023-10-13T05:08:58;64128.19;;;-137.53
64904;BMP280;51401;48.882;12.598;2023-10-13T05:11:42;64128.19;;;-137.53
64904;BMP280;51401;48.882;12.598;2023-10-13T05:14:26;64128.19;;;-137.53
64904;BMP280;51401;48.882;12.598;2023-10-13T05:17:10;64128.19;;;-137.53
64904;BMP280;51401;48.882;12.598;2023-10-13T05:19:56;64126.19;;;-137.53
64904;BMP280;51401;48.882;12.598;2023-10-13T05:22:40;64128.19;;;-137.53
64904;BMP280;51401;48.882;12.598;2023-10-13T05:25:23;64124.22;;;-137.53
64904;BMP280;51401;48.882;12.598;2023-10-13T05:28:07;64128.19;;;-137.53
64904;BMP280;51401;48.882;12.598;2023-10-13T05:30:51;64124.22;;;-137.53
64904;BMP280;51401;48.882;12.598;2023-10-13T05:33:35;64124.22;;;-137.53
64904;BMP280;51401;48.882;12.598;2023-10-13T05:36:19;64126.19;;;-137.53
64904;BMP280;51401;48.882;12.598;2023-10-13T05:39:03;64124.22;;;-137.53
64904;BMP280;51401;48.882;12.598;2023-10-13T05:41:46;64128.19;;;-137.53
64904;BMP280;51401;48.882;12.598;2023-10-13T05:44:30;64128.19;;;-137.53
64904;BMP280;51401;48.882;12.598;2023-10-13T05:47:02;64130.16;;;-137.53
64904;BMP280;51401;48.882;12.598;2023-10-13T05:49:47;64128.19;;;-137.53
64904;BMP280;51401;48.882;12.598;2023-10-13T05:52:18;64128.19;;;-137.53
64904;BMP280;51401;48.882;12.598;2023-10-13T05:55:01;64126.19;;;-137.53
64904;BMP280;51401;48.882;12.598;2023-10-13T05:57:56;64126.19;;;-137.53
64904;BMP280;51401;48.882;12.598;2023-10-13T06:00:41;64126.19;;;-137.53
64904;BMP280;51401;48.882;12.598;2023-10-13T06:03:29;64126.19;;;-137.53
64904;BMP280;51401;48.882;12.598;2023-10-13T06:06:13;64124.22;;;-137.53
64904;BMP280;51401;48.882;12.598;2023-10-13T06:08:57;64126.19;;;-137.53
64904;BMP280;51401;48.882;12.598;2023-10-13T06:11:41;64124.22;;;-137.53
64904;BMP280;51401;48.882;12.598;2023-10-13T06:14:25;64128.19;;;-137.53
64904;BMP280;51401;48.882;12.598;2023-10-13T06:17:09;64128.19;;;-137.53
64904;BMP280;51401;48.882;12.598;2023-10-13T06:19:53;64128.19;;;-137.53
64904;BMP280;51401;48.882;12.598;2023-10-13T06:22:37;64126.19;;;-137.53
64904;BMP280;51401;48.882;12.598;2023-10-13T06:25:21;64124.22;;;-137.53
64904;BMP280;51401;48.882;12.598;2023-10-13T06:28:04;64124.22;;;-137.53
64904;BMP280;51401;48.882;12.598;2023-10-13T06:30:58;64124.22;;;-137.53
64904;BMP280;51401;48.882;12.598;2023-10-13T06:33:24;64128.19;;;-137.53
64904;BMP280;51401;48.882;12.598;2023-10-13T06:35:53;64124.22;;;-137.53
64904;BMP280;51401;48.882;12.598;2023-10-13T06:38:21;64124.22;;;-137.53
64904;BMP280;51401;48.882;12.598;2023-10-13T06:40:46;64120.25;;;-137.53
64904;BMP280;51401;48.882;12.598;2023-10-13T06:43:13;64124.22;;;-137.53
64904;BMP280;51401;48.882;12.598;2023-10-13T06:45:42;64124.22;;;-137.53
64904;BMP280;51401;48.882;12.598;2023-10-13T06:48:07;64122.22;;;-137.53
64904;BMP280;51401;48.882;12.598;2023-10-13T06:50:36;64120.25;;;-137.53
64904;BMP280;51401;48.882;12.598;2023-10-13T06:53:06;64124.22;;;-137.53
64904;BMP280;51401;48.882;12.598;2023-10-13T06:55:31;64120.25;;;-137.53
64904;BMP280;51401;48.882;12.598;2023-10-13T06:58:00;64120.25;;;-137.53
64904;BMP280;51401;48.882;12.598;2023-10-13T07:00:28;64122.22;;;-137.53
64904;BMP280;51401;48.882;12.598;2023-10-13T07:02:55;64120.25;;;-137.53
64904;BMP280;51401;48.882;12.598;2023-10-13T07:05:33;64120.25;;;-137.53
64904;BMP280;51401;48.882;12.598;2023-10-13T07:07:59;64120.25;;;-137.53
64904;BMP280;51401;48.882;12.598;2023-10-13T07:10:24;64120.25;;;-137.53
64904;BMP280;51401;48.882;12.598;2023-10-13T07:12:54;64118.25;;;-137.53
64904;BMP280;51401;48.882;12.598;2023-10-13T07:15:24;64116.25;;;-137.53
64904;BMP280;51401;48.882;12.598;2023-10-13T07:17:52;64116.25;;;-137.53
64904;BMP280;51401;48.882;12.598;2023-10-13T07:20:24;64116.25;;;-137.53
64904;BMP280;51401;48.882;12.598;2023-10-13T07:22:50;64116.25;;;-137.53
64904;BMP280;51401;48.882;12.598;2023-10-13T07:25:34;64114.28;;;-137.53
64904;BMP280;51401;48.882;12.598;2023-10-13T07:28:03;64114.28;;;-137.53
64904;BMP280;51401;48.882;12.598;2023-10-13T07:30:29;64116.25;;;-137.53
64904;BMP280;51401;48.882;12.598;2023-10-13T07:32:56;64114.28;;;-137.53
64904;BMP280;51401;48.882;12.598;2023-10-13T07:35:24;64116.25;;;-137.53
64904;BMP280;51401;48.882;12.598;2023-10-13T07:37:50;64116.25;;;-137.53
64904;BMP280;51401;48.882;12.598;2023-10-13T07:40:17;64112.28;;;-137.53
64904;BMP280;51401;48.882;12.598;2023-10-13T07:42:55;64116.25;;;-137.53
64904;BMP280;51401;48.882;12.598;2023-10-13T07:45:28;64114.28;;;-137.53
64904;BMP280;51401;48.882;12.598;2023-10-13T07:48:03;64116.25;;;-137.53
64904;BMP280;51401;48.882;12.598;2023-10-13T07:51:05;64112.28;;;-137.53
64904;BMP280;51401;48.882;12.598;2023-10-13T07:53:36;64110.31;;;-137.53
64904;BMP280;51401;48.882;12.598;2023-10-13T07:56:04;64114.28;;;-137.53
64904;BMP280;51401;48.882;12.598;2023-10-13T07:58:39;64114.28;;;-137.53
64904;BMP280;51401;48.882;12.598;2023-10-13T08:01:25;64112.28;;;-137.53
64904;BMP280;51401;48.882;12.598;2023-10-13T08:03:51;64112.28;;;-137.53
64904;BMP280;51401;48.882;12.598;2023-10-13T08:06:35;64110.31;;;-137.53
64904;BMP280;51401;48.882;12.598;2023-10-13T08:09:01;64108.31;;;-137.53
64904;BMP280;51401;48.882;12.598;2023-10-13T08:11:34;64108.31;;;-137.53
64904;BMP280;51401;48.882;12.598;2023-10-13T08:14:00;64108.31;;;-137.53
64904;BMP280;51401;48.882;12.598;2023-10-13T08:16:35;64108.31;;;-137.53
64904;BMP280;51401;48.882;12.598;2023-10-13T08:19:13;64106.34;;;-137.53
64904;BMP280;51401;48.882;12.598;2023-10-13T08:21:40;64108.31;;;-137.53
64904;BMP280;51401;48.882;12.598;2023-10-13T08:24:13;64102.38;;;-137.53
64904;BMP280;51401;48.882;12.598;2023-10-13T08:26:40;64100.38;;;-137.53
64904;BMP280;51401;48.882;12.598;2023-10-13T08:29:24;64100.38;;;-137.53
64904;BMP280;51401;48.882;12.598;2023-10-13T08:31:55;64102.38;;;-137.53
64904;BMP280;51401;48.882;12.598;2023-10-13T08:34:39;64108.31;;;-137.53
64904;BMP280;51401;48.882;12.598;2023-10-13T08:37:08;64108.31;;;-137.53
64904;BMP280;51401;48.882;12.598;2023-10-13T08:39:51;64106.34;;;-137.53
64904;BMP280;51401;48.882;12.598;2023-10-13T08:42:23;64102.38;;;-137.53
64904;BMP280;51401;48.882;12.598;2023-10-13T08:44:59;64100.38;;;-137.53
64904;BMP280;51401;48.882;12.598;2023-10-13T08:47:29;64108.31;;;-137.53
64904;BMP280;51401;48.882;12.598;2023-10-13T08:50:02;64108.31;;;-137.53
64904;BMP280;51401;48.882;12.598;2023-10-13T08:52:48;64100.38;;;-137.53
64904;BMP280;51401;48.882;12.598;2023-10-13T08:55:14;64100.38;;;-137.53
64904;BMP280;51401;48.882;12.598;2023-10-13T08:57:58;64108.31;;;-137.53
64904;BMP280;51401;48.882;12.598;2023-10-13T09:00:29;64100.38;;;-137.53
64904;BMP280;51401;48.882;12.598;2023-10-13T09:03:14;64100.38;;;-137.53
64904;BMP280;51401;48.882;12.598;2023-10-13T09:05:53;64098.41;;;-137.53
64904;BMP280;51401;48.882;12.598;2023-10-13T09:08:31;64106.34;;;-137.53
64904;BMP280;51401;48.882;12.598;2023-10-13T09:11:22;64098.41;;;-137.53
64904;BMP280;51401;48.882;12.598;2023-10-13T09:13:51;64100.38;;;-137.53
64904;BMP280;51401;48.882;12.598;2023-10-13T09:16:17;64098.41;;;-137.53
64904;BMP280;51401;48.882;12.598;2023-10-13T09:19:01;64102.38;;;-137.53
64904;BMP280;51401;48.882;12.598;2023-10-13T09:21:29;64100.38;;;-137.53
64904;BMP280;51401;48.882;12.598;2023-10-13T09:24:08;64100.38;;;-137.53
64904;BMP280;51401;48.882;12.598;2023-10-13T09:26:46;64098.41;;;-137.53
64904;BMP280;51401;48.882;12.598;2023-10-13T09:29:17;64106.34;;;-137.53
64904;BMP280;51401;48.882;12.598;2023-10-13T09:31:44;64096.41;;;-137.53
64904;BMP280;51401;48.882;12.598;2023-10-13T09:34:10;64094.44;;;-137.53
64904;BMP280;51401;48.882;12.598;2023-10-13T09:36:35;64096.41;;;-137.53
64904;BMP280;51401;48.882;12.598;2023-10-13T09:39:00;64098.41;;;-137.53
64904;BMP280;51401;48.882;12.598;2023-10-13T09:41:39;64094.44;;;-137.53
64904;BMP280;51401;48.882;12.598;2023-10-13T09:44:05;64096.41;;;-137.53
64904;BMP280;51401;48.882;12.598;2023-10-13T09:46:33;64096.41;;;-137.53
64904;BMP280;51401;48.882;12.598;2023-10-13T09:49:05;64094.44;;;-137.53
64904;BMP280;51401;48.882;12.598;2023-10-13T09:51:32;64094.44;;;-137.53
64904;BMP280;51401;48.882;12.598;2023-10-13T09:54:02;64096.41;;;-137.53
64904;BMP280;51401;48.882;12.598;2023-10-13T09:56:42;64092.44;;;-137.53
64904;BMP280;51401;48.882;12.598;2023-10-13T09:59:18;64094.44;;;-137.53
64904;BMP280;51401;48.882;12.598;2023-10-13T10:01:44;64092.44;;;-137.53
64904;BMP280;51401;48.882;12.598;2023-10-13T10:04:16;64092.44;;;-137.53
64904;BMP280;51401;48.882;12.598;2023-10-13T10:09:25;64092.44;;;-137.53
64904;BMP280;51401;48.882;12.598;2023-10-13T10:17:28;64094.44;;;-137.53
64904;BMP280;51401;48.882;12.598;2023-10-13T10:19:54;64096.41;;;-137.53
64904;BMP280;51401;48.882;12.598;2023-10-13T10:22:30;64094.44;;;-137.53
64904;BMP280;51401;48.882;12.598;2023-10-13T10:25:01;64092.44;;;-137.53
64904;BMP280;51401;48.882;12.598;2023-10-13T10:27:27;64092.44;;;-137.53
64904;BMP280;51401;48.882;12.598;2023-10-13T10:29:54;64096.41;;;-137.53
64904;BMP280;51401;48.882;12.598;2023-10-13T10:32:19;64092.44;;;-137.53
64904;BMP280;51401;48.882;12.598;2023-10-13T10:34:44;64094.44;;;-137.53
64904;BMP280;51401;48.882;12.598;2023-10-13T10:37:09;64096.41;;;-137.53
64904;BMP280;51401;48.882;12.598;2023-10-13T10:39:37;64092.44;;;-137.53
64904;BMP280;51401;48.882;12.598;2023-10-13T10:42:11;64092.44;;;-137.53
64904;BMP280;51401;48.882;12.598;2023-10-13T10:44:54;64094.44;;;-137.53
64904;BMP280;51401;48.882;12.598;2023-10-13T10:47:30;64088.47;;;-137.53
64904;BMP280;51401;48.882;12.598;2023-10-13T10:50:04;64092.44;;;-137.53
64904;BMP280;51401;48.882;12.598;2023-10-13T10:52:33;64090.44;;;-137.53
64904;BMP280;51401;48.882;12.598;2023-10-13T10:55:02;64092.44;;;-137.53
64904;BMP280;51401;48.882;12.598;2023-10-13T10:57:31;64090.44;;;-137.53
64904;BMP280;51401;48.882;12.598;2023-10-13T11:00:02;64090.44;;;-137.53
64904;BMP280;51401;48.882;12.598;2023-10-13T11:02:37;64090.44;;;-137.53
64904;BMP280;51401;48.882;12.598;2023-10-13T11:05:03;64088.47;;;-137.53
64904;BMP280;51401;48.882;12.598;2023-10-13T11:07:31;64090.44;;;-137.53
64904;BMP280;51401;48.882;12.598;2023-10-13T11:09:56;64090.44;;;-137.53
64904;BMP280;51401;48.882;12.598;2023-10-13T11:12:32;64090.44;;;-137.53
64904;BMP280;51401;48.882;12.598;2023-10-13T11:15:00;64086.47;;;-137.53
64904;BMP280;51401;48.882;12.598;2023-10-13T11:17:25;64088.47;;;-137.53
64904;BMP280;51401;48.882;12.598;2023-10-13T11:20:16;64090.44;;;-137.53
64904;BMP280;51401;48.882;12.598;2023-10-13T11:22:49;64088.47;;;-137.53
64904;BMP280;51401;48.882;12.598;2023-10-13T11:25:29;64088.47;;;-137.53
64904;BMP280;51401;48.882;12.598;2023-10-13T11:27:55;64088.47;;;-137.53
64904;BMP280;51401;48.882;12.598;2023-10-13T11:30:21;64088.47;;;-137.53
64904;BMP280;51401;48.882;12.598;2023-10-13T11:33:09;64092.44;;;-137.53
64904;BMP280;51401;48.882;12.598;2023-10-13T11:35:34;64090.44;;;-137.53
64904;BMP280;51401;48.882;12.598;2023-10-13T11:38:18;64092.44;;;-137.53
64904;BMP280;51401;48.882;12.598;2023-10-13T11:43:30;64090.44;;;-137.53
64904;BMP280;51401;48.882;12.598;2023-10-13T11:46:00;64088.47;;;-137.53
64904;BMP280;51401;48.882;12.598;2023-10-13T11:48:34;64094.44;;;-137.53
64904;BMP280;51401;48.882;12.598;2023-10-13T11:51:01;64092.44;;;-137.53
64904;BMP280;51401;48.882;12.598;2023-10-13T11:53:32;64090.44;;;-137.53
64904;BMP280;51401;48.882;12.598;2023-10-13T11:55:57;64090.44;;;-137.53
64904;BMP280;51401;48.882;12.598;2023-10-13T11:58:23;64088.47;;;-137.53
64904;BMP280;51401;48.882;12.598;2023-10-13T12:00:48;64086.47;;;-137.53
64904;BMP280;51401;48.882;12.598;2023-10-13T12:03:19;64088.47;;;-137.53
64904;BMP280;51401;48.882;12.598;2023-10-13T12:06:03;64092.44;;;-137.53
64904;BMP280;51401;48.882;12.598;2023-10-13T12:08:44;64092.44;;;-137.53
64904;BMP280;51401;48.882;12.598;2023-10-13T12:11:15;64090.44;;;-137.53
64904;BMP280;51401;48.882;12.598;2023-10-13T12:13:55;64094.44;;;-137.53
64904;BMP280;51401;48.882;12.598;2023-10-13T12:16:20;64092.44;;;-137.53
64904;BMP280;51401;48.882;12.598;2023-10-13T12:18:46;64090.44;;;-137.53
64904;BMP280;51401;48.882;12.598;2023-10-13T12:21:18;64090.44;;;-137.53
64904;BMP280;51401;48.882;12.598;2023-10-13T12:23:44;64092.44;;;-137.53
64904;BMP280;51401;48.882;12.598;2023-10-13T12:26:10;64088.47;;;-137.53
64904;BMP280;51401;48.882;12.598;2023-10-13T12:28:44;64090.44;;;-137.53
64904;BMP280;51401;48.882;12.598;2023-10-13T12:31:16;64088.47;;;-137.53
64904;BMP280;51401;48.882;12.598;2023-10-13T12:33:42;64088.47;;;-137.53
64904;BMP280;51401;48.882;12.598;2023-10-13T12:36:08;64088.47;;;-137.53
64904;BMP280;51401;48.882;12.598;2023-10-13T12:38:39;64088.47;;;-137.53
64904;BMP280;51401;48.882;12.598;2023-10-13T12:41:16;64092.44;;;-137.53
64904;BMP280;51401;48.882;12.598;2023-10-13T12:44:00;64088.47;;;-137.53
64904;BMP280;51401;48.882;12.598;2023-10-13T12:46:44;64088.47;;;-137.53
64904;BMP280;51401;48.882;12.598;2023-10-13T12:49:28;64088.47;;;-137.53
64904;BMP280;51401;48.882;12.598;2023-10-13T12:52:12;64092.44;;;-137.53
64904;BMP280;51401;48.882;12.598;2023-10-13T12:54:44;64086.47;;;-137.53
64904;BMP280;51401;48.882;12.598;2023-10-13T12:57:15;64088.47;;;-137.53
64904;BMP280;51401;48.882;12.598;2023-10-13T12:59:41;64088.47;;;-137.53
64904;BMP280;51401;48.882;12.598;2023-10-13T13:02:06;64090.44;;;-137.53
64904;BMP280;51401;48.882;12.598;2023-10-13T13:04:39;64092.44;;;-137.53
64904;BMP280;51401;48.882;12.598;2023-10-13T13:07:08;64090.44;;;-137.53
64904;BMP280;51401;48.882;12.598;2023-10-13T13:09:38;64092.44;;;-137.53
64904;BMP280;51401;48.882;12.598;2023-10-13T13:12:03;64088.47;;;-137.53
64904;BMP280;51401;48.882;12.598;2023-10-13T13:14:31;64092.44;;;-137.53
64904;BMP280;51401;48.882;12.598;2023-10-13T13:16:59;64084.50;;;-137.53
64904;BMP280;51401;48.882;12.598;2023-10-13T13:19:33;64090.44;;;-137.53
64904;BMP280;51401;48.882;12.598;2023-10-13T13:22:04;64086.47;;;-137.53
64904;BMP280;51401;48.882;12.598;2023-10-13T13:24:29;64084.50;;;-137.53
64904;BMP280;51401;48.882;12.598;2023-10-13T13:26:57;64088.47;;;-137.53
64904;BMP280;51401;48.882;12.598;2023-10-13T13:29:28;64086.47;;;-137.53
64904;BMP280;51401;48.882;12.598;2023-10-13T13:31:54;64086.47;;;-137.53
64904;BMP280;51401;48.882;12.598;2023-10-13T13:34:20;64086.47;;;-137.53
64904;BMP280;51401;48.882;12.598;2023-10-13T13:36:46;64084.50;;;-137.53
64904;BMP280;51401;48.882;12.598;2023-10-13T13:39:17;64088.47;;;-137.53
64904;BMP280;51401;48.882;12.598;2023-10-13T13:41:52;64084.50;;;-137.53
64904;BMP280;51401;48.882;12.598;2023-10-13T13:44:21;64086.47;;;-137.53
64904;BMP280;51401;48.882;12.598;2023-10-13T13:46:52;64086.47;;;-137.53
64904;BMP280;51401;48.882;12.598;2023-10-13T13:49:18;64084.50;;;-137.53
64904;BMP280;51401;48.882;12.598;2023-10-13T13:51:44;64086.47;;;-137.53
64904;BMP280;51401;48.882;12.598;2023-10-13T13:54:16;64086.47;;;-137.53
64904;BMP280;51401;48.882;12.598;2023-10-13T13:56:42;64086.47;;;-137.53
64904;BMP280;51401;48.882;12.598;2023-10-13T13:59:07;64086.47;;;-137.53
64904;BMP280;51401;48.882;12.598;2023-10-13T14:01:33;64086.47;;;-137.53
64904;BMP280;51401;48.882;12.598;2023-10-13T14:04:02;64086.47;;;-137.53
64904;BMP280;51401;48.882;12.598;2023-10-13T14:06:28;64088.47;;;-137.53
64904;BMP280;51401;48.882;12.598;2023-10-13T14:08:57;64086.47;;;-137.53
64904;BMP280;51401;48.882;12.598;2023-10-13T14:11:25;64086.47;;;-137.53